createdAt,value
2023-05-15T00:00:55.013Z,8.10
2023-05-15T00:03:23.414Z,8.10
2023-05-15T00:05:52.427Z,8.30
2023-05-15T00:08:20.604Z,8.20
2023-05-15T00:11:00.831Z,8.20
2023-05-15T00:13:31.661Z,8.30
2023-05-15T00:15:59.961Z,8.30
2023-05-15T00:18:28.074Z,8.20
2023-05-15T00:20:56.152Z,8.00
2023-05-15T00:23:24.183Z,7.90
2023-05-15T00:25:52.546Z,7.90
2023-05-15T00:28:20.706Z,8.10
2023-05-15T00:30:50.139Z,8.10
2023-05-15T00:33:18.340Z,8.00
2023-05-15T00:35:47.081Z,8.00
2023-05-15T00:38:15.186Z,7.90
2023-05-15T00:40:45.538Z,8.00
2023-05-15T00:43:15.234Z,8.00
2023-05-15T00:45:44.374Z,7.90
2023-05-15T00:48:14.461Z,7.80
2023-05-15T00:50:43.975Z,7.70
2023-05-15T00:53:12.792Z,7.60
2023-05-15T00:55:43.465Z,7.60
2023-05-15T00:58:12.401Z,7.60
2023-05-15T01:00:41.012Z,7.70
2023-05-15T01:03:09.456Z,7.70
2023-05-15T01:05:39.260Z,7.70
2023-05-15T01:08:19.994Z,7.70
2023-05-15T01:10:49.982Z,7.70
2023-05-15T01:13:21.298Z,7.70
2023-05-15T01:15:50.606Z,7.90
2023-05-15T01:18:18.920Z,7.90
2023-05-15T01:21:25.512Z,8.00
2023-05-15T01:24:17.348Z,7.90
2023-05-15T01:27:13.837Z,8.00
2023-05-15T01:29:52.325Z,8.00
2023-05-15T01:32:29.363Z,7.80
2023-05-15T01:35:06.674Z,7.60
2023-05-15T01:37:41.342Z,7.50
2023-05-15T01:40:12.869Z,7.50
2023-05-15T01:42:52.248Z,7.50
2023-05-15T01:45:24.409Z,7.50
2023-05-15T01:47:55.469Z,7.50
2023-05-15T01:50:24.732Z,7.60
2023-05-15T01:52:59.626Z,7.60
2023-05-15T01:55:30.390Z,7.60
2023-05-15T01:58:03.186Z,7.60
2023-05-15T02:00:34.037Z,7.60
2023-05-15T02:03:03.165Z,7.60
2023-05-15T02:05:32.831Z,7.60
2023-05-15T02:08:03.464Z,7.60
2023-05-15T02:10:33.380Z,7.50
2023-05-15T02:13:03.345Z,7.40
2023-05-15T02:15:31.786Z,7.30
2023-05-15T02:18:00.073Z,7.30
2023-05-15T02:20:28.193Z,7.10
2023-05-15T02:22:56.200Z,7.10
2023-05-15T02:25:39.626Z,7.00
2023-05-15T02:28:21.071Z,7.10
2023-05-15T02:31:02.195Z,7.30
2023-05-15T02:33:43.630Z,7.30
2023-05-15T02:36:20.701Z,7.40
2023-05-15T02:38:50.478Z,7.50
2023-05-15T02:41:19.709Z,7.60
2023-05-15T02:43:55.102Z,7.60
2023-05-15T02:46:25.423Z,7.70
2023-05-15T02:48:54.934Z,7.60
2023-05-15T02:51:23.247Z,7.60
2023-05-15T02:53:53.001Z,7.60
2023-05-15T02:56:21.441Z,7.50
2023-05-15T02:58:50.946Z,7.50
2023-05-15T03:01:20.554Z,7.70
2023-05-15T03:03:48.975Z,7.70
2023-05-15T03:06:18.594Z,7.70
2023-05-15T03:08:46.645Z,7.60
2023-05-15T03:11:14.723Z,7.60
2023-05-15T03:13:42.820Z,7.70
2023-05-15T03:16:12.278Z,7.90
2023-05-15T03:18:40.466Z,8.00
2023-05-15T03:21:08.528Z,8.00
2023-05-15T03:23:37.983Z,8.00
2023-05-15T03:26:06.325Z,7.90
2023-05-15T03:28:34.313Z,7.80
2023-05-15T03:31:03.373Z,7.70
2023-05-15T03:33:33.346Z,7.70
2023-05-15T03:36:01.398Z,7.70
2023-05-15T03:38:29.437Z,7.70
2023-05-15T03:40:57.488Z,7.70
2023-05-15T03:43:26.070Z,7.80
2023-05-15T03:45:54.123Z,7.80
2023-05-15T03:48:22.161Z,7.80
2023-05-15T03:50:52.407Z,7.80
2023-05-15T03:53:20.511Z,7.60
2023-05-15T03:55:48.662Z,7.60
2023-05-15T03:58:16.711Z,7.60
2023-05-15T04:00:45.088Z,7.80
2023-05-15T04:03:13.206Z,8.00
2023-05-15T04:05:41.602Z,7.80
2023-05-15T04:08:12.446Z,7.90
2023-05-15T04:10:40.689Z,7.80
2023-05-15T04:13:08.817Z,7.90
2023-05-15T04:15:37.568Z,7.90
2023-05-15T04:18:05.998Z,8.00
2023-05-15T04:20:34.721Z,8.10
2023-05-15T04:23:05.794Z,8.10
2023-05-15T04:25:35.700Z,8.10
2023-05-15T04:28:03.727Z,8.10
2023-05-15T04:30:32.070Z,8.20
2023-05-15T04:33:00.216Z,8.30
2023-05-15T04:35:28.454Z,8.40
2023-05-15T04:37:56.628Z,8.50
2023-05-15T04:40:24.822Z,8.60
2023-05-15T04:42:54.295Z,8.60
2023-05-15T04:45:24.545Z,8.60
2023-05-15T04:47:52.958Z,8.70
2023-05-15T04:50:21.211Z,8.80
2023-05-15T04:52:49.297Z,8.80
2023-05-15T04:55:17.717Z,8.80
2023-05-15T04:57:48.410Z,8.90
2023-05-15T05:00:18.954Z,9.10
2023-05-15T05:02:47.169Z,9.20
2023-05-15T05:05:15.843Z,9.30
2023-05-15T05:07:45.755Z,9.50
2023-05-15T05:10:14.289Z,9.60
2023-05-15T05:12:42.327Z,9.80
2023-05-15T05:15:11.727Z,10.30
2023-05-15T05:17:41.223Z,10.70
2023-05-15T05:20:12.927Z,10.80
2023-05-15T05:22:42.456Z,11.00
2023-05-15T05:25:11.261Z,11.20
2023-05-15T05:27:39.366Z,11.60
2023-05-15T05:30:09.879Z,11.60
2023-05-15T05:32:37.986Z,11.70
2023-05-15T05:35:08.155Z,11.90
2023-05-15T05:37:37.577Z,12.10
2023-05-15T05:40:08.791Z,11.90
2023-05-15T05:42:37.143Z,11.70
2023-05-15T05:45:06.369Z,11.70
2023-05-15T05:47:34.545Z,12.10
2023-05-15T05:50:03.156Z,12.80
2023-05-15T05:52:33.080Z,13.50
2023-05-15T05:55:01.110Z,14.20
2023-05-15T05:57:29.144Z,14.60
2023-05-15T05:59:57.406Z,15.10
2023-05-15T06:02:25.643Z,15.70
2023-05-15T06:04:53.718Z,16.70
2023-05-15T06:07:22.150Z,17.60
2023-05-15T06:09:51.573Z,18.30
2023-05-15T06:12:21.552Z,18.70
2023-05-15T06:14:50.931Z,19.40
2023-05-15T06:17:20.091Z,19.50
2023-05-15T06:19:48.349Z,19.90
2023-05-15T06:22:16.344Z,19.90
2023-05-15T06:24:44.351Z,19.50
2023-05-15T06:27:13.671Z,19.40
2023-05-15T06:29:41.771Z,20.20
2023-05-15T06:32:09.834Z,21.30
2023-05-15T06:34:37.864Z,21.80
2023-05-15T06:37:06.067Z,22.20
2023-05-15T06:39:34.081Z,22.20
2023-05-15T06:42:02.152Z,21.50
2023-05-15T06:44:32.269Z,20.50
2023-05-15T06:47:00.631Z,20.70
2023-05-15T06:49:29.526Z,20.00
2023-05-15T06:51:57.707Z,19.40
2023-05-15T06:54:26.432Z,19.60
2023-05-15T06:56:54.469Z,20.20
2023-05-15T06:59:22.450Z,19.90
2023-05-15T07:01:53.299Z,19.20
2023-05-15T07:04:23.555Z,18.90
2023-05-15T07:06:51.570Z,18.50
2023-05-15T07:09:19.563Z,18.70
2023-05-15T07:11:47.548Z,19.70
2023-05-15T07:14:15.637Z,19.60
2023-05-15T07:16:43.655Z,19.20
2023-05-15T07:19:13.323Z,18.40
2023-05-15T07:21:41.420Z,17.70
2023-05-15T07:24:09.678Z,17.60
2023-05-15T07:26:50.337Z,17.90
2023-05-15T07:29:25.430Z,18.50
2023-05-15T07:31:53.727Z,19.00
2023-05-15T07:34:23.462Z,19.90
2023-05-15T07:36:51.586Z,20.90
2023-05-15T07:39:19.716Z,21.20
2023-05-15T07:41:47.984Z,21.90
2023-05-15T07:44:16.028Z,22.10
2023-05-15T07:46:45.573Z,21.60
2023-05-15T07:49:13.731Z,20.70
2023-05-15T07:51:43.465Z,19.90
2023-05-15T07:54:11.529Z,19.50
2023-05-15T07:56:40.243Z,19.20
2023-05-15T07:59:08.552Z,19.20
2023-05-15T08:01:36.729Z,20.50
2023-05-15T08:04:09.889Z,22.10
2023-05-15T08:06:39.147Z,24.10
2023-05-15T08:09:09.212Z,24.50
2023-05-15T08:11:37.650Z,26.00
2023-05-15T08:14:05.970Z,25.80
2023-05-15T08:16:34.157Z,24.70
2023-05-15T08:19:04.901Z,23.50
2023-05-15T08:21:33.269Z,22.90
2023-05-15T08:24:01.893Z,22.30
2023-05-15T08:26:31.365Z,22.50
2023-05-15T08:28:59.362Z,22.70
2023-05-15T08:31:27.411Z,22.50
2023-05-15T08:33:55.662Z,23.00
2023-05-15T08:36:23.811Z,22.90
2023-05-15T08:38:51.956Z,23.00
2023-05-15T08:41:40.487Z,23.40
2023-05-15T08:44:10.974Z,22.90
2023-05-15T08:46:39.843Z,23.10
2023-05-15T08:49:20.091Z,22.70
2023-05-15T08:51:49.213Z,22.70
2023-05-15T08:54:17.859Z,23.30
2023-05-15T08:56:47.615Z,23.60
2023-05-15T08:59:15.630Z,23.60
2023-05-15T09:01:44.159Z,23.40
2023-05-15T09:04:12.363Z,23.30
2023-05-15T09:06:44.169Z,23.40
2023-05-15T09:09:13.772Z,23.60
2023-05-15T09:11:49.051Z,23.50
2023-05-15T09:14:17.085Z,23.20
2023-05-15T09:16:46.823Z,23.40
2023-05-15T09:19:16.920Z,24.70
2023-05-15T09:21:44.987Z,25.40
2023-05-15T09:24:23.421Z,25.20
2023-05-15T09:27:06.236Z,24.40
2023-05-15T09:29:37.053Z,23.40
2023-05-15T09:32:08.920Z,23.10
2023-05-15T09:34:39.525Z,23.20
2023-05-15T09:37:10.873Z,23.40
2023-05-15T09:39:43.739Z,24.10
2023-05-15T09:42:15.871Z,25.30
2023-05-15T09:44:45.668Z,26.90
2023-05-15T09:47:16.792Z,28.80
2023-05-15T09:49:46.852Z,29.80
2023-05-15T09:52:17.239Z,31.10
2023-05-15T09:54:50.107Z,32.40
2023-05-15T09:57:24.246Z,33.50
2023-05-15T09:59:52.290Z,34.50
2023-05-15T10:02:33.153Z,34.90
2023-05-15T10:05:01.476Z,34.40
2023-05-15T10:07:30.579Z,33.10
2023-05-15T10:09:59.257Z,31.90
2023-05-15T10:12:32.084Z,30.40
2023-05-15T10:15:01.294Z,30.90
2023-05-15T10:17:32.596Z,31.00
2023-05-15T10:20:02.962Z,31.00
2023-05-15T10:22:33.511Z,32.10
2023-05-15T10:25:10.205Z,33.40
2023-05-15T10:27:41.491Z,34.10
2023-05-15T10:30:12.281Z,34.80
2023-05-15T10:32:42.413Z,35.60
2023-05-15T10:35:12.781Z,35.20
2023-05-15T10:37:41.635Z,34.60
2023-05-15T10:40:11.992Z,33.00
2023-05-15T10:42:44.541Z,29.90
2023-05-15T10:45:12.976Z,27.70
2023-05-15T10:47:44.404Z,26.90
2023-05-15T10:50:14.578Z,27.90
2023-05-15T10:52:43.713Z,29.60
2023-05-15T10:55:18.543Z,29.20
2023-05-15T10:57:49.002Z,28.70
2023-05-15T11:00:28.938Z,28.50
2023-05-15T11:02:58.771Z,28.10
2023-05-15T11:05:27.634Z,27.20
2023-05-15T11:08:28.602Z,27.10
2023-05-15T11:10:57.099Z,27.10
2023-05-15T11:13:26.637Z,27.20
2023-05-15T11:15:57.201Z,26.90
2023-05-15T11:18:26.708Z,26.60
2023-05-15T11:21:09.344Z,26.50
2023-05-15T11:23:42.167Z,26.00
2023-05-15T11:26:10.259Z,25.30
2023-05-15T11:28:47.065Z,25.00
2023-05-15T11:31:15.918Z,25.00
2023-05-15T11:33:44.122Z,25.10
2023-05-15T11:36:15.862Z,24.50
2023-05-15T11:38:45.006Z,24.30
2023-05-15T11:41:24.873Z,24.20
2023-05-15T11:43:54.351Z,25.10
2023-05-15T11:46:23.648Z,26.00
2023-05-15T11:48:51.977Z,26.20
2023-05-15T11:51:23.302Z,27.60
2023-05-15T11:53:53.475Z,29.20
2023-05-15T11:56:24.353Z,30.20
2023-05-15T11:58:57.261Z,31.80
2023-05-15T12:01:25.788Z,33.80
2023-05-15T12:03:55.234Z,34.30
2023-05-15T12:06:24.363Z,34.80
2023-05-15T12:08:54.246Z,34.30
2023-05-15T12:11:24.285Z,31.90
2023-05-15T12:13:55.197Z,30.70
2023-05-15T12:16:26.268Z,30.90
2023-05-15T12:18:54.500Z,31.10
2023-05-15T12:21:22.602Z,30.30
2023-05-15T12:24:07.142Z,29.20
2023-05-15T12:26:36.832Z,28.00
2023-05-15T12:29:07.534Z,27.10
2023-05-15T12:31:37.068Z,25.70
2023-05-15T12:34:05.788Z,23.10
2023-05-15T12:36:34.088Z,21.90
2023-05-15T12:39:09.065Z,21.60
2023-05-15T12:41:38.913Z,23.40
2023-05-15T12:44:16.508Z,23.90
2023-05-15T12:46:44.660Z,24.40
2023-05-15T12:49:13.649Z,24.70
2023-05-15T12:51:44.854Z,24.10
2023-05-15T12:54:19.266Z,23.20
2023-05-15T12:56:48.651Z,23.10
2023-05-15T12:59:18.079Z,23.40
2023-05-15T13:01:46.479Z,24.00
2023-05-15T13:04:14.733Z,22.80
2023-05-15T13:06:46.766Z,21.90
2023-05-15T13:09:22.515Z,21.70
2023-05-15T13:11:50.817Z,22.60
2023-05-15T13:14:21.057Z,23.50
2023-05-15T13:16:49.311Z,24.50
2023-05-15T13:19:17.803Z,25.30
2023-05-15T13:21:46.036Z,25.20
2023-05-15T13:24:14.213Z,25.20
2023-05-15T13:26:42.492Z,24.90
2023-05-15T13:29:10.529Z,24.80
2023-05-15T13:31:40.006Z,24.90
2023-05-15T13:34:08.061Z,24.50
2023-05-15T13:36:39.345Z,24.00
2023-05-15T13:39:07.661Z,23.90
2023-05-15T13:41:38.103Z,23.60
2023-05-15T13:44:06.398Z,24.70
2023-05-15T13:46:34.572Z,25.70
2023-05-15T13:49:05.691Z,25.20
2023-05-15T13:51:33.816Z,25.10
2023-05-15T13:54:01.870Z,26.50
2023-05-15T13:56:30.126Z,27.80
2023-05-15T13:58:58.126Z,27.90
2023-05-15T14:01:26.161Z,28.10
2023-05-15T14:03:54.255Z,28.30
2023-05-15T14:06:23.667Z,28.10
2023-05-15T14:08:51.640Z,27.30
2023-05-15T14:11:21.976Z,26.30
2023-05-15T14:13:49.967Z,25.70
2023-05-15T14:16:18.000Z,24.90
2023-05-15T14:18:46.164Z,24.30
2023-05-15T14:21:14.315Z,23.90
2023-05-15T14:23:43.693Z,23.40
2023-05-15T14:26:11.748Z,23.10
2023-05-15T14:28:39.801Z,23.10
2023-05-15T14:31:08.473Z,22.90
2023-05-15T14:33:36.581Z,22.90
2023-05-15T14:36:05.468Z,23.10
2023-05-15T14:38:33.554Z,23.20
2023-05-15T14:41:02.910Z,23.30
2023-05-15T14:43:30.906Z,23.70
2023-05-15T14:45:58.915Z,24.30
2023-05-15T14:48:26.960Z,24.80
2023-05-15T14:50:54.992Z,25.00
2023-05-15T14:53:23.063Z,25.50
2023-05-15T14:55:51.126Z,25.90
2023-05-15T14:58:20.626Z,26.30
2023-05-15T15:00:48.793Z,26.20
2023-05-15T15:03:17.074Z,25.80
2023-05-15T15:05:45.153Z,25.50
2023-05-15T15:08:13.165Z,25.30
2023-05-15T15:10:43.570Z,24.80
2023-05-15T15:13:13.585Z,24.20
2023-05-15T15:15:42.946Z,24.10
2023-05-15T15:18:11.172Z,24.10
2023-05-15T15:20:39.341Z,23.90
2023-05-15T15:23:07.346Z,23.60
2023-05-15T15:25:35.540Z,23.40
2023-05-15T15:28:03.787Z,23.10
2023-05-15T15:30:32.110Z,22.90
2023-05-15T15:33:01.973Z,22.90
2023-05-15T15:35:30.268Z,22.90
2023-05-15T15:37:58.287Z,23.00
2023-05-15T15:40:26.797Z,23.10
2023-05-15T15:42:55.022Z,23.30
2023-05-15T15:45:23.160Z,23.40
2023-05-15T15:47:51.144Z,23.50
2023-05-15T15:50:20.562Z,23.70
2023-05-15T15:52:48.544Z,23.80
2023-05-15T15:55:16.528Z,23.90
2023-05-15T15:57:44.753Z,23.90
2023-05-15T16:00:14.226Z,23.90
2023-05-15T16:02:42.570Z,24.10
2023-05-15T16:05:11.345Z,24.10
2023-05-15T16:07:40.749Z,24.00
2023-05-15T16:10:12.942Z,24.00
2023-05-15T16:12:42.602Z,24.00
2023-05-15T16:17:43.044Z,23.90
2023-05-15T16:20:12.138Z,23.80
2023-05-15T16:22:43.025Z,23.80
2023-05-15T16:25:11.308Z,23.40
2023-05-15T16:27:39.409Z,23.10
2023-05-15T16:30:09.248Z,22.90
2023-05-15T16:32:37.402Z,22.20
2023-05-15T16:35:06.726Z,21.90
2023-05-15T16:37:34.757Z,21.70
2023-05-15T16:40:04.775Z,21.70
2023-05-15T16:42:37.943Z,21.80
2023-05-15T16:45:08.204Z,21.80
2023-05-15T16:47:38.329Z,21.80
2023-05-15T16:50:07.912Z,21.80
2023-05-15T16:52:36.072Z,21.50
2023-05-15T16:55:06.726Z,21.20
2023-05-15T16:57:34.746Z,21.10
2023-05-15T17:00:02.768Z,21.00
2023-05-15T17:02:31.014Z,20.90
2023-05-15T17:05:00.851Z,20.60
2023-05-15T17:07:29.084Z,20.50
2023-05-15T17:09:57.147Z,20.60
2023-05-15T17:12:26.848Z,20.60
2023-05-15T17:14:54.883Z,20.50
2023-05-15T17:17:23.250Z,20.40
2023-05-15T17:19:51.334Z,20.40
2023-05-15T17:22:19.472Z,20.40
2023-05-15T17:24:52.077Z,20.50
2023-05-15T17:27:21.255Z,20.30
2023-05-15T17:29:50.846Z,20.10
2023-05-15T17:32:19.729Z,20.00
2023-05-15T17:34:50.033Z,20.00
2023-05-15T17:37:18.320Z,19.80
2023-05-15T17:39:46.363Z,19.80
2023-05-15T17:42:14.448Z,19.60
2023-05-15T17:44:42.445Z,19.40
2023-05-15T17:47:11.984Z,19.30
2023-05-15T17:49:40.756Z,19.10
2023-05-15T17:52:09.128Z,18.90
2023-05-15T17:54:37.244Z,18.70
2023-05-15T17:57:06.200Z,18.50
2023-05-15T17:59:34.429Z,18.40
2023-05-15T18:02:02.814Z,18.20
2023-05-15T18:04:32.293Z,18.00
2023-05-15T18:07:00.319Z,17.80
2023-05-15T18:09:28.316Z,17.60
2023-05-15T18:11:56.408Z,17.40
2023-05-15T18:14:24.472Z,17.10
2023-05-15T18:16:52.551Z,16.90
2023-05-15T18:19:20.758Z,16.80
2023-05-15T18:21:50.330Z,16.60
2023-05-15T18:24:18.360Z,16.40
2023-05-15T18:26:46.812Z,16.30
2023-05-15T18:29:14.866Z,16.20
2023-05-15T18:31:42.927Z,16.00
2023-05-15T18:34:11.040Z,15.90
2023-05-15T18:36:39.054Z,15.80
2023-05-15T18:39:08.457Z,15.70
2023-05-15T18:41:36.530Z,15.60
2023-05-15T18:44:04.879Z,15.40
2023-05-15T18:46:33.979Z,15.40
2023-05-15T18:49:02.193Z,15.30
2023-05-15T18:51:30.886Z,15.10
2023-05-15T18:53:58.887Z,15.10
2023-05-15T18:56:28.470Z,15.00
2023-05-15T18:58:56.427Z,14.90
2023-05-15T19:01:24.535Z,14.90
2023-05-15T19:03:52.631Z,14.80
2023-05-15T19:06:20.772Z,14.80
2023-05-15T19:08:49.372Z,14.70
2023-05-15T19:11:18.192Z,14.50
2023-05-15T19:13:47.596Z,14.40
2023-05-15T19:16:15.709Z,14.30
2023-05-15T19:18:43.831Z,14.30
2023-05-15T19:21:12.133Z,14.30
2023-05-15T19:23:40.142Z,14.10
2023-05-15T19:26:10.299Z,14.00
2023-05-15T19:28:38.424Z,14.00
2023-05-15T19:31:13.998Z,13.90
2023-05-15T19:33:45.619Z,13.90
2023-05-15T19:36:15.025Z,13.80
2023-05-15T19:38:43.132Z,13.70
2023-05-15T19:41:12.402Z,13.40
2023-05-15T19:43:46.271Z,13.20
2023-05-15T19:46:15.701Z,13.00
2023-05-15T19:48:43.816Z,12.90
2023-05-15T19:51:12.068Z,12.80
2023-05-15T19:53:40.259Z,12.80
2023-05-15T19:56:08.499Z,12.80
2023-05-15T19:58:36.778Z,12.80
2023-05-15T20:01:04.806Z,12.80
2023-05-15T20:03:34.450Z,12.90
2023-05-15T20:06:03.576Z,12.90
2023-05-15T20:08:31.797Z,13.00
2023-05-15T20:10:59.930Z,13.00
2023-05-15T20:13:28.108Z,13.10
2023-05-15T20:15:57.653Z,13.10
2023-05-15T20:18:26.216Z,13.10
2023-05-15T20:20:55.564Z,13.10
2023-05-15T20:23:23.899Z,13.00
2023-05-15T20:25:52.731Z,12.90
2023-05-15T20:28:24.855Z,12.90
2023-05-15T20:30:53.301Z,12.90
2023-05-15T20:33:21.356Z,13.00
2023-05-15T20:35:51.346Z,13.10
2023-05-15T20:38:25.196Z,13.20
2023-05-15T20:40:53.544Z,13.20
2023-05-15T20:43:21.630Z,13.30
2023-05-15T20:45:49.807Z,13.50
2023-05-15T20:48:18.102Z,13.50
2023-05-15T20:50:46.205Z,13.60
2023-05-15T20:53:14.291Z,13.70
2023-05-15T20:55:43.637Z,13.70
2023-05-15T20:58:11.669Z,13.70
2023-05-15T21:00:39.902Z,13.70
2023-05-15T21:03:09.313Z,13.70
2023-05-15T21:05:37.519Z,13.60
2023-05-15T21:08:05.962Z,13.60
2023-05-15T21:10:34.046Z,13.60
2023-05-15T21:13:03.568Z,13.60
2023-05-15T21:15:32.289Z,13.50
2023-05-15T21:18:00.333Z,13.40
2023-05-15T21:20:28.656Z,13.40
2023-05-15T21:22:56.864Z,13.30
2023-05-15T21:25:24.930Z,13.30
2023-05-15T21:27:53.030Z,13.30
2023-05-15T21:30:22.809Z,13.20
2023-05-15T21:32:50.864Z,13.20
2023-05-15T21:35:18.921Z,13.20
2023-05-15T21:37:47.861Z,13.20
2023-05-15T21:40:16.133Z,13.20
2023-05-15T21:42:44.141Z,13.10
2023-05-15T21:45:12.403Z,13.10
2023-05-15T21:47:42.028Z,13.10
2023-05-15T21:50:10.923Z,12.90
2023-05-15T21:52:38.929Z,12.90
2023-05-15T21:55:08.724Z,12.90
2023-05-15T21:57:36.773Z,12.80
2023-05-15T22:00:07.416Z,12.80
2023-05-15T22:02:36.105Z,12.80
2023-05-15T22:05:06.559Z,12.70
2023-05-15T22:07:34.633Z,12.70
2023-05-15T22:10:02.988Z,12.60
2023-05-15T22:12:31.743Z,12.60
2023-05-15T22:15:00.257Z,12.50
2023-05-15T22:17:30.375Z,12.50
2023-05-15T22:20:06.835Z,12.50
2023-05-15T22:22:37.169Z,12.40
2023-05-15T22:25:06.645Z,12.40
2023-05-15T22:27:35.044Z,12.30
2023-05-15T22:30:03.230Z,12.30
2023-05-15T22:32:31.337Z,12.30
2023-05-15T22:34:59.405Z,12.20
2023-05-15T22:37:27.563Z,12.20
2023-05-15T22:39:57.383Z,12.10
2023-05-15T22:42:25.533Z,12.10
2023-05-15T22:44:55.397Z,12.10
2023-05-15T22:47:23.725Z,12.00
2023-05-15T22:49:51.944Z,12.00
2023-05-15T22:52:20.038Z,12.00
2023-05-15T22:54:48.107Z,11.90
2023-05-15T22:57:17.686Z,11.80
2023-05-15T22:59:45.800Z,11.70
2023-05-15T23:02:13.889Z,11.60
2023-05-15T23:04:41.902Z,11.60
2023-05-15T23:07:09.902Z,11.50
2023-05-15T23:09:37.957Z,11.40
2023-05-15T23:12:07.379Z,11.40
2023-05-15T23:14:36.842Z,11.40
2023-05-15T23:17:05.438Z,11.30
2023-05-15T23:19:33.894Z,11.20
2023-05-15T23:22:02.198Z,11.20
2023-05-15T23:24:30.599Z,11.20
2023-05-15T23:26:58.678Z,11.20
2023-05-15T23:29:26.820Z,11.10
2023-05-15T23:31:58.652Z,11.10
2023-05-15T23:34:26.724Z,11.20
2023-05-15T23:36:54.780Z,11.20
2023-05-15T23:39:22.794Z,11.20
2023-05-15T23:41:51.328Z,11.30
2023-05-15T23:44:19.472Z,11.30
2023-05-15T23:46:47.638Z,11.30
2023-05-15T23:49:17.422Z,11.30
2023-05-15T23:51:45.437Z,11.40
2023-05-15T23:54:13.433Z,11.40
2023-05-15T23:56:41.456Z,11.30
2023-05-15T23:59:09.529Z,11.30
